createdAt,value
2022-08-30T00:00:12.592Z,100450.13
2022-08-30T00:02:41.128Z,100458.22
2022-08-30T00:05:10.423Z,100455.63
2022-08-30T00:07:38.874Z,100452.19
2022-08-30T00:10:10.587Z,100441.94
2022-08-30T00:12:39.111Z,100447.28
2022-08-30T00:15:09.377Z,100443.53
2022-08-30T00:17:41.507Z,100441.94
2022-08-30T00:20:15.382Z,100440.09
2022-08-30T00:22:43.836Z,100450.63
2022-08-30T00:25:15.477Z,100445.63
2022-08-30T00:27:45.206Z,100448.25
2022-08-30T00:30:16.605Z,100444.78
2022-08-30T00:32:45.077Z,100433.47
2022-08-30T00:35:20.986Z,100434.03
2022-08-30T00:37:50.840Z,100441.44
2022-08-30T00:40:27.132Z,100439.84
2022-08-30T00:42:59.575Z,100434.34
2022-08-30T00:45:32.892Z,100436.13
2022-08-30T00:48:02.082Z,100434.47
2022-08-30T00:50:36.196Z,100438.16
2022-08-30T00:53:08.894Z,100441.97
2022-08-30T00:55:39.106Z,100441.75
2022-08-30T00:58:19.982Z,100444.09
2022-08-30T01:00:50.092Z,100442.28
2022-08-30T01:03:18.803Z,100450.16
2022-08-30T01:05:49.739Z,100448.44
2022-08-30T01:08:18.466Z,100455.66
2022-08-30T01:10:48.549Z,100457.78
2022-08-30T01:13:17.727Z,100458.66
2022-08-30T01:15:47.157Z,100462.91
2022-08-30T01:18:17.473Z,100459.03
2022-08-30T01:20:56.224Z,100445.56
2022-08-30T01:23:27.153Z,100450.78
2022-08-30T01:25:57.434Z,100458.53
2022-08-30T01:28:28.472Z,100458.53
2022-08-30T01:30:57.367Z,100453.28
2022-08-30T01:33:26.505Z,100451.31
2022-08-30T01:35:57.974Z,100454.91
2022-08-30T01:38:32.075Z,100453.66
2022-08-30T01:41:01.968Z,100454.41
2022-08-30T01:43:30.456Z,100442.53
2022-08-30T01:45:58.970Z,100439.91
2022-08-30T01:48:31.258Z,100443.44
2022-08-30T01:51:00.241Z,100441.06
2022-08-30T01:53:30.604Z,100447.47
2022-08-30T01:55:59.364Z,100444.41
2022-08-30T01:58:28.592Z,100445.16
2022-08-30T02:00:57.537Z,100441.47
2022-08-30T02:03:30.546Z,100445.06
2022-08-30T02:05:59.010Z,100440.78
2022-08-30T02:08:28.912Z,100434.66
2022-08-30T02:10:59.357Z,100440.78
2022-08-30T02:13:27.983Z,100438.19
2022-08-30T02:15:56.665Z,100434.91
2022-08-30T02:18:27.275Z,100437.44
2022-08-30T02:20:55.821Z,100434.91
2022-08-30T02:23:24.194Z,100442.66
2022-08-30T02:25:54.702Z,100438.38
2022-08-30T02:28:23.502Z,100434.94
2022-08-30T02:30:53.658Z,100437.56
2022-08-30T02:33:22.177Z,100444.88
2022-08-30T02:35:50.664Z,100445.97
2022-08-30T02:38:20.203Z,100440.66
2022-08-30T02:40:49.055Z,100433.75
2022-08-30T02:43:20.299Z,100444.38
2022-08-30T02:45:49.007Z,100452.28
2022-08-30T02:48:17.539Z,100446.34
2022-08-30T02:50:49.148Z,100441.09
2022-08-30T02:53:18.286Z,100437.75
2022-08-30T02:55:46.916Z,100443.84
2022-08-30T02:58:15.445Z,100443.09
2022-08-30T03:00:45.394Z,100437.19
2022-08-30T03:03:14.033Z,100427.59
2022-08-30T03:05:42.596Z,100430.44
2022-08-30T03:08:11.425Z,100424.34
2022-08-30T03:10:39.934Z,100428.09
2022-08-30T03:13:09.044Z,100426.66
2022-08-30T03:15:40.547Z,100431.13
2022-08-30T03:18:11.169Z,100422.66
2022-08-30T03:20:39.777Z,100430.41
2022-08-30T03:23:10.425Z,100426.00
2022-08-30T03:25:50.120Z,100420.78
2022-08-30T03:28:19.236Z,100419.09
2022-08-30T03:30:48.161Z,100415.78
2022-08-30T03:33:18.722Z,100427.91
2022-08-30T03:35:50.342Z,100420.91
2022-08-30T03:38:19.107Z,100414.19
2022-08-30T03:40:48.258Z,100417.50
2022-08-30T03:43:16.880Z,100413.97
2022-08-30T03:45:45.936Z,100419.31
2022-08-30T03:48:14.423Z,100425.19
2022-08-30T03:50:44.167Z,100421.13
2022-08-30T03:53:13.245Z,100417.56
2022-08-30T03:55:41.754Z,100423.81
2022-08-30T03:58:10.244Z,100419.44
2022-08-30T04:00:38.786Z,100425.59
2022-08-30T04:03:07.441Z,100416.75
2022-08-30T04:05:35.920Z,100411.56
2022-08-30T04:08:06.349Z,100410.75
2022-08-30T04:10:35.279Z,100412.66
2022-08-30T04:13:04.175Z,100418.94
2022-08-30T04:15:32.577Z,100420.66
2022-08-30T04:18:00.974Z,100422.50
2022-08-30T04:20:29.493Z,100422.53
2022-08-30T04:22:57.907Z,100427.03
2022-08-30T04:25:27.961Z,100425.50
2022-08-30T04:27:56.576Z,100424.78
2022-08-30T04:30:25.057Z,100428.47
2022-08-30T04:32:58.091Z,100427.84
2022-08-30T04:35:27.685Z,100424.13
2022-08-30T04:37:56.149Z,100423.34
2022-08-30T04:40:24.618Z,100426.72
2022-08-30T04:42:54.622Z,100432.88
2022-08-30T04:45:23.875Z,100431.25
2022-08-30T04:47:52.357Z,100439.63
2022-08-30T04:50:22.635Z,100428.44
2022-08-30T04:52:51.132Z,100429.25
2022-08-30T04:55:20.489Z,100439.84
2022-08-30T04:57:49.456Z,100443.16
2022-08-30T05:00:20.691Z,100441.44
2022-08-30T05:02:50.585Z,100439.75
2022-08-30T05:05:37.146Z,100437.91
2022-08-30T05:08:06.183Z,100437.16
2022-08-30T05:10:35.817Z,100444.97
2022-08-30T05:13:04.227Z,100451.81
2022-08-30T05:15:34.146Z,100445.84
2022-08-30T05:18:03.125Z,100448.38
2022-08-30T05:20:31.725Z,100455.38
2022-08-30T05:23:00.396Z,100456.75
2022-08-30T05:25:32.314Z,100459.97
2022-08-30T05:28:00.998Z,100458.38
2022-08-30T05:30:34.979Z,100462.31
2022-08-30T05:33:04.014Z,100465.00
2022-08-30T05:35:32.795Z,100467.44
2022-08-30T05:38:01.177Z,100471.50
2022-08-30T05:40:29.704Z,100469.19
2022-08-30T05:42:58.142Z,100465.94
2022-08-30T05:45:26.556Z,100467.56
2022-08-30T05:47:56.471Z,100468.06
2022-08-30T05:50:24.965Z,100468.97
2022-08-30T05:52:53.453Z,100476.94
2022-08-30T05:55:22.330Z,100474.13
2022-08-30T05:57:50.784Z,100474.22
2022-08-30T06:00:20.753Z,100477.72
2022-08-30T06:02:49.255Z,100478.59
2022-08-30T06:05:19.550Z,100477.56
2022-08-30T06:07:47.945Z,100477.34
2022-08-30T06:10:16.861Z,100483.75
2022-08-30T06:12:45.759Z,100481.84
2022-08-30T06:15:14.501Z,100484.84
2022-08-30T06:17:43.621Z,100484.00
2022-08-30T06:20:14.132Z,100478.59
2022-08-30T06:22:43.903Z,100468.81
2022-08-30T06:25:14.321Z,100466.19
2022-08-30T06:27:42.899Z,100464.84
2022-08-30T06:30:12.416Z,100464.72
2022-08-30T06:32:40.925Z,100474.78
2022-08-30T06:35:10.428Z,100475.91
2022-08-30T06:37:38.837Z,100474.66
2022-08-30T06:40:11.215Z,100471.69
2022-08-30T06:42:39.691Z,100473.34
2022-08-30T06:45:10.994Z,100476.13
2022-08-30T06:47:40.847Z,100470.75
2022-08-30T06:50:12.242Z,100472.97
2022-08-30T06:52:42.348Z,100473.69
2022-08-30T06:55:15.646Z,100472.25
2022-08-30T06:57:44.518Z,100476.53
2022-08-30T07:00:16.645Z,100481.25
2022-08-30T07:02:45.147Z,100482.03
2022-08-30T07:05:18.160Z,100489.47
2022-08-30T07:07:47.435Z,100484.81
2022-08-30T07:10:17.538Z,100487.22
2022-08-30T07:12:46.119Z,100484.25
2022-08-30T07:15:15.034Z,100483.31
2022-08-30T07:18:00.852Z,100483.97
2022-08-30T07:20:39.816Z,100483.44
2022-08-30T07:23:09.391Z,100488.66
2022-08-30T07:25:40.443Z,100493.19
2022-08-30T07:28:10.320Z,100488.84
2022-08-30T07:30:39.067Z,100499.34
2022-08-30T07:33:07.674Z,100494.00
2022-08-30T07:35:37.295Z,100500.53
2022-08-30T07:38:05.742Z,100497.84
2022-08-30T07:40:34.224Z,100497.47
2022-08-30T07:43:04.134Z,100498.41
2022-08-30T07:45:32.580Z,100498.25
2022-08-30T07:48:04.752Z,100499.41
2022-08-30T07:50:33.142Z,100499.69
2022-08-30T07:53:01.582Z,100504.94
2022-08-30T07:55:29.986Z,100502.53
2022-08-30T07:57:58.901Z,100501.34
2022-08-30T08:00:28.822Z,100503.63
2022-08-30T08:02:57.297Z,100504.38
2022-08-30T08:05:25.762Z,100494.81
2022-08-30T08:07:54.115Z,100503.50
2022-08-30T08:10:23.016Z,100500.72
2022-08-30T08:12:52.219Z,100512.94
2022-08-30T08:15:20.804Z,100514.44
2022-08-30T08:17:50.599Z,100511.75
2022-08-30T08:20:19.203Z,100503.31
2022-08-30T08:22:47.594Z,100512.94
2022-08-30T08:25:16.374Z,100510.38
2022-08-30T08:27:44.790Z,100510.13
2022-08-30T08:30:14.614Z,100501.94
2022-08-30T08:32:43.041Z,100504.59
2022-08-30T08:35:13.190Z,100513.09
2022-08-30T08:37:41.942Z,100508.97
2022-08-30T08:40:15.724Z,100509.25
2022-08-30T08:43:00.592Z,100509.72
2022-08-30T08:45:43.385Z,100503.97
2022-08-30T08:48:28.832Z,100505.72
2022-08-30T08:51:21.265Z,100504.81
2022-08-30T08:53:57.648Z,100501.84
2022-08-30T08:56:26.373Z,100502.16
2022-08-30T08:58:57.448Z,100503.66
2022-08-30T09:01:30.159Z,100508.91
2022-08-30T09:04:02.907Z,100502.47
2022-08-30T09:06:50.199Z,100496.16
2022-08-30T09:09:23.120Z,100497.28
2022-08-30T09:11:51.645Z,100498.06
2022-08-30T09:14:25.176Z,100489.06
2022-08-30T09:17:03.218Z,100488.44
2022-08-30T09:19:42.704Z,100487.28
2022-08-30T09:22:36.123Z,100490.94
2022-08-30T09:25:08.661Z,100475.16
2022-08-30T09:27:39.016Z,100473.34
2022-08-30T09:30:14.966Z,100468.06
2022-08-30T09:32:51.458Z,100466.22
2022-08-30T09:35:22.708Z,100468.47
2022-08-30T09:37:57.820Z,100464.91
2022-08-30T09:40:30.562Z,100466.41
2022-08-30T09:43:07.882Z,100457.56
2022-08-30T09:45:40.595Z,100462.53
2022-08-30T09:48:40.551Z,100459.03
2022-08-30T09:51:40.215Z,100454.31
2022-08-30T09:54:20.732Z,100451.25
2022-08-30T09:57:11.670Z,100454.97
2022-08-30T09:59:48.222Z,100450.09
2022-08-30T10:02:42.354Z,100446.47
2022-08-30T10:05:20.123Z,100443.81
2022-08-30T10:08:00.088Z,100441.13
2022-08-30T10:10:40.880Z,100442.63
2022-08-30T10:13:56.774Z,100438.72
2022-08-30T10:16:41.659Z,100419.94
2022-08-30T10:19:29.639Z,100427.81
2022-08-30T10:22:05.812Z,100419.81
2022-08-30T10:24:40.398Z,100420.44
2022-08-30T10:27:19.378Z,100415.44
2022-08-30T10:29:55.454Z,100416.19
2022-08-30T10:32:29.465Z,100413.38
2022-08-30T10:35:14.286Z,100425.00
2022-08-30T10:37:49.736Z,100422.38
2022-08-30T10:40:44.557Z,100418.44
2022-08-30T10:43:24.977Z,100406.31
2022-08-30T10:46:01.347Z,100411.19
2022-08-30T10:48:39.908Z,100413.09
2022-08-30T10:51:19.690Z,100416.50
2022-08-30T10:53:55.381Z,100412.81
2022-08-30T10:56:26.994Z,100407.84
2022-08-30T10:58:59.238Z,100405.94
2022-08-30T11:01:46.533Z,100406.00
2022-08-30T11:04:45.518Z,100402.38
2022-08-30T11:07:28.300Z,100395.72
2022-08-30T11:10:32.849Z,100394.31
2022-08-30T11:13:05.269Z,100381.41
2022-08-30T11:15:40.164Z,100390.81
2022-08-30T11:18:15.226Z,100384.47
2022-08-30T11:20:46.568Z,100388.63
2022-08-30T11:23:30.527Z,100389.38
2022-08-30T11:26:05.193Z,100390.56
2022-08-30T11:29:07.751Z,100382.66
2022-08-30T11:31:44.747Z,100386.34
2022-08-30T11:34:55.172Z,100390.09
2022-08-30T11:37:41.587Z,100383.72
2022-08-30T11:40:48.308Z,100385.81
2022-08-30T11:43:56.113Z,100381.00
2022-08-30T11:46:40.187Z,100367.72
2022-08-30T11:49:48.358Z,100367.81
2022-08-30T11:52:35.383Z,100372.63
2022-08-30T11:55:35.211Z,100364.41
2022-08-30T11:58:31.283Z,100364.94
2022-08-30T12:01:50.112Z,100365.53
2022-08-30T12:04:37.554Z,100356.75
2022-08-30T12:07:10.132Z,100360.69
2022-08-30T12:10:03.340Z,100350.81
2022-08-30T12:12:57.039Z,100350.25
2022-08-30T12:15:58.269Z,100351.38
2022-08-30T12:18:39.105Z,100347.13
2022-08-30T12:21:28.168Z,100346.50
2022-08-30T12:24:07.653Z,100349.63
2022-08-30T12:26:39.445Z,100343.13
2022-08-30T12:29:16.228Z,100342.44
2022-08-30T12:31:49.217Z,100343.81
2022-08-30T12:34:28.641Z,100335.28
2022-08-30T12:37:03.014Z,100336.44
2022-08-30T12:39:38.208Z,100335.97
2022-08-30T12:42:17.914Z,100335.94
2022-08-30T12:44:48.394Z,100333.97
2022-08-30T12:47:21.384Z,100323.09
2022-08-30T12:49:51.062Z,100318.41
2022-08-30T12:52:35.197Z,100319.47
2022-08-30T12:55:19.155Z,100322.13
2022-08-30T12:58:01.015Z,100321.25
2022-08-30T13:00:32.771Z,100321.28
2022-08-30T13:03:16.306Z,100323.97
2022-08-30T13:05:50.016Z,100313.75
2022-08-30T13:08:25.412Z,100320.13
2022-08-30T13:11:08.302Z,100314.41
2022-08-30T13:13:44.400Z,100308.81
2022-08-30T13:16:25.403Z,100302.97
2022-08-30T13:18:57.572Z,100293.78
2022-08-30T13:21:31.028Z,100297.88
2022-08-30T13:24:02.058Z,100291.59
2022-08-30T13:26:35.474Z,100290.84
2022-08-30T13:29:10.323Z,100282.56
2022-08-30T13:31:39.427Z,100281.19
2022-08-30T13:34:09.267Z,100276.72
2022-08-30T13:36:45.831Z,100285.34
2022-08-30T13:39:16.632Z,100285.09
2022-08-30T13:41:51.532Z,100282.88
2022-08-30T13:44:20.418Z,100278.03
2022-08-30T13:46:54.428Z,100277.78
2022-08-30T13:52:22.853Z,100281.81
2022-08-30T13:54:52.886Z,100268.47
2022-08-30T14:00:19.706Z,100260.38
2022-08-30T14:02:54.691Z,100266.53
2022-08-30T14:11:06.857Z,100259.66
2022-08-30T14:13:37.425Z,100257.94
2022-08-30T14:18:58.787Z,100261.53
2022-08-30T14:21:27.797Z,100253.56
2022-08-30T14:23:57.697Z,100256.44
2022-08-30T14:26:32.517Z,100247.78
2022-08-30T14:29:05.510Z,100245.97
2022-08-30T14:31:38.618Z,100246.78
2022-08-30T14:34:09.200Z,100249.53
2022-08-30T14:36:42.980Z,100243.00
2022-08-30T14:39:15.242Z,100235.38
2022-08-30T14:41:47.529Z,100241.69
2022-08-30T14:44:19.395Z,100232.63
2022-08-30T14:46:48.890Z,100230.47
2022-08-30T14:49:20.734Z,100228.38
2022-08-30T14:51:50.152Z,100223.47
2022-08-30T14:54:23.225Z,100224.00
2022-08-30T14:56:54.417Z,100224.72
2022-08-30T14:59:25.211Z,100212.25
2022-08-30T15:01:54.325Z,100209.34
2022-08-30T15:04:23.082Z,100207.63
2022-08-30T15:06:52.085Z,100211.41
2022-08-30T15:09:23.875Z,100210.63
2022-08-30T15:11:55.108Z,100204.91
2022-08-30T15:14:26.393Z,100206.13
2022-08-30T15:16:58.371Z,100186.81
2022-08-30T15:19:27.837Z,100198.31
2022-08-30T15:22:02.743Z,100196.22
2022-08-30T15:24:32.419Z,100197.13
2022-08-30T15:27:02.229Z,100192.06
2022-08-30T15:29:32.284Z,100193.75
2022-08-30T15:32:02.176Z,100194.94
2022-08-30T15:34:31.547Z,100185.63
2022-08-30T15:37:00.255Z,100179.72
2022-08-30T15:39:29.145Z,100187.66
2022-08-30T15:42:01.193Z,100184.25
2022-08-30T15:44:31.799Z,100182.09
2022-08-30T15:47:00.557Z,100179.13
2022-08-30T15:49:29.818Z,100178.13
2022-08-30T15:52:02.343Z,100176.09
2022-08-30T15:54:31.954Z,100178.59
2022-08-30T15:57:01.418Z,100179.19
2022-08-30T15:59:32.950Z,100183.00
2022-08-30T16:02:01.562Z,100183.56
2022-08-30T16:04:30.062Z,100174.13
2022-08-30T16:06:58.758Z,100171.50
2022-08-30T16:09:29.980Z,100167.88
2022-08-30T16:12:01.638Z,100175.53
2022-08-30T16:14:30.133Z,100172.19
2022-08-30T16:17:00.751Z,100165.78
2022-08-30T16:19:29.623Z,100159.50
2022-08-30T16:21:58.541Z,100168.56
2022-08-30T16:24:27.768Z,100170.50
2022-08-30T16:26:56.338Z,100173.47
2022-08-30T16:29:24.720Z,100167.41
2022-08-30T16:31:53.154Z,100162.44
2022-08-30T16:34:23.453Z,100160.66
2022-08-30T16:36:54.442Z,100160.16
2022-08-30T16:39:22.861Z,100155.69
2022-08-30T16:41:51.312Z,100163.31
2022-08-30T16:44:19.753Z,100168.38
2022-08-30T16:46:52.572Z,100161.09
2022-08-30T16:49:25.407Z,100159.19
2022-08-30T16:51:54.457Z,100148.28
2022-08-30T16:54:23.708Z,100158.69
2022-08-30T16:56:52.798Z,100159.66
2022-08-30T16:59:21.222Z,100157.25
2022-08-30T17:01:50.468Z,100159.41
2022-08-30T17:04:19.873Z,100157.50
2022-08-30T17:06:51.078Z,100161.84
2022-08-30T17:09:20.575Z,100167.75
2022-08-30T17:11:49.823Z,100177.22
2022-08-30T17:14:27.669Z,100168.00
2022-08-30T17:16:58.357Z,100167.66
2022-08-30T17:19:29.376Z,100176.13
2022-08-30T17:21:59.493Z,100166.56
2022-08-30T17:24:28.571Z,100174.66
2022-08-30T17:26:58.164Z,100171.06
2022-08-30T17:29:27.287Z,100179.31
2022-08-30T17:31:55.963Z,100178.97
2022-08-30T17:34:27.216Z,100180.47
2022-08-30T17:36:59.961Z,100199.34
2022-08-30T17:39:28.974Z,100191.00
2022-08-30T17:41:57.675Z,100199.50
2022-08-30T17:44:29.715Z,100197.66
2022-08-30T17:46:59.648Z,100190.28
2022-08-30T17:49:30.293Z,100192.06
2022-08-30T17:52:00.419Z,100203.69
2022-08-30T17:54:31.707Z,100196.91
2022-08-30T17:57:00.845Z,100200.81
2022-08-30T17:59:31.714Z,100197.41
2022-08-30T18:02:02.314Z,100206.72
2022-08-30T18:04:31.507Z,100208.91
2022-08-30T18:07:01.373Z,100219.53
2022-08-30T18:09:33.811Z,100213.91
2022-08-30T18:12:02.488Z,100219.78
2022-08-30T18:14:31.452Z,100227.13
2022-08-30T18:17:00.989Z,100223.13
2022-08-30T18:19:32.156Z,100223.00
2022-08-30T18:22:03.158Z,100226.72
2022-08-30T18:24:32.643Z,100232.16
2022-08-30T18:27:02.342Z,100235.88
2022-08-30T18:29:32.174Z,100245.13
2022-08-30T18:32:02.263Z,100238.97
2022-08-30T18:34:31.145Z,100248.25
2022-08-30T18:37:01.343Z,100254.84
2022-08-30T18:39:34.434Z,100257.38
2022-08-30T18:42:03.848Z,100254.00
2022-08-30T18:44:33.375Z,100256.00
2022-08-30T18:47:05.638Z,100256.59
2022-08-30T18:49:36.925Z,100253.41
2022-08-30T18:52:09.831Z,100257.97
2022-08-30T18:54:49.721Z,100253.84
2022-08-30T18:57:20.924Z,100256.94
2022-08-30T18:59:50.669Z,100257.56
2022-08-30T19:02:19.650Z,100260.44
2022-08-30T19:04:49.208Z,100259.81
2022-08-30T19:07:20.100Z,100257.44
2022-08-30T19:09:48.918Z,100266.91
2022-08-30T19:12:19.712Z,100266.28
2022-08-30T19:14:49.468Z,100272.03
2022-08-30T19:17:17.874Z,100264.47
2022-08-30T19:19:49.201Z,100266.59
2022-08-30T19:22:27.436Z,100270.41
2022-08-30T19:24:58.797Z,100271.78
2022-08-30T19:27:38.040Z,100271.25
2022-08-30T19:30:13.521Z,100266.16
2022-08-30T19:32:44.729Z,100265.63
2022-08-30T19:35:16.434Z,100274.97
2022-08-30T19:37:47.759Z,100270.03
2022-08-30T19:40:19.715Z,100276.69
2022-08-30T19:42:50.495Z,100282.19
2022-08-30T19:45:22.731Z,100281.34
2022-08-30T19:47:53.297Z,100282.59
2022-08-30T19:50:22.951Z,100288.41
2022-08-30T19:52:54.960Z,100276.19
2022-08-30T19:55:28.581Z,100281.91
2022-08-30T19:57:58.594Z,100278.50
2022-08-30T20:00:27.214Z,100278.91
2022-08-30T20:02:59.386Z,100282.72
2022-08-30T20:05:27.879Z,100277.59
2022-08-30T20:07:58.358Z,100279.59
2022-08-30T20:10:27.365Z,100282.25
2022-08-30T20:12:55.962Z,100275.75
2022-08-30T20:15:25.763Z,100289.00
2022-08-30T20:18:13.449Z,100288.56
2022-08-30T20:20:49.914Z,100295.09
2022-08-30T20:23:21.726Z,100292.59
2022-08-30T20:25:52.058Z,100297.34
2022-08-30T20:28:21.843Z,100302.91
2022-08-30T20:30:50.693Z,100307.47
2022-08-30T20:33:19.625Z,100315.78
2022-08-30T20:35:49.774Z,100313.31
2022-08-30T20:38:21.956Z,100312.47
2022-08-30T20:40:53.409Z,100324.97
2022-08-30T20:43:24.696Z,100320.03
2022-08-30T20:45:55.367Z,100320.16
2022-08-30T20:48:26.155Z,100321.09
2022-08-30T20:50:54.761Z,100318.94
2022-08-30T20:53:24.750Z,100325.16
2022-08-30T20:55:53.240Z,100324.56
2022-08-30T20:58:21.723Z,100329.03
2022-08-30T21:00:54.413Z,100323.06
2022-08-30T21:03:25.949Z,100322.31
2022-08-30T21:05:57.294Z,100318.34
2022-08-30T21:08:27.605Z,100324.00
2022-08-30T21:10:56.865Z,100331.19
2022-08-30T21:13:25.517Z,100320.78
2022-08-30T21:15:55.370Z,100331.13
2022-08-30T21:18:31.160Z,100320.44
2022-08-30T21:21:00.090Z,100320.63
2022-08-30T21:23:29.978Z,100316.19
2022-08-30T21:26:05.080Z,100323.63
2022-08-30T21:28:34.177Z,100325.63
2022-08-30T21:31:08.638Z,100327.97
2022-08-30T21:33:37.611Z,100330.91
2022-08-30T21:36:24.477Z,100330.25
2022-08-30T21:38:57.516Z,100329.56
2022-08-30T21:41:31.626Z,100328.53
2022-08-30T21:44:02.457Z,100327.09
2022-08-30T21:46:32.780Z,100335.63
2022-08-30T21:49:03.780Z,100327.94
2022-08-30T21:51:35.718Z,100330.09
2022-08-30T21:54:07.268Z,100329.06
2022-08-30T21:56:36.820Z,100335.13
2022-08-30T21:59:07.374Z,100337.97
2022-08-30T22:01:37.764Z,100323.31
2022-08-30T22:04:10.066Z,100330.47
2022-08-30T22:06:41.787Z,100328.91
2022-08-30T22:09:20.585Z,100332.50
2022-08-30T22:11:50.026Z,100330.81
2022-08-30T22:14:20.095Z,100333.81
2022-08-30T22:16:48.895Z,100333.06
2022-08-30T22:19:22.390Z,100335.09
2022-08-30T22:21:51.928Z,100334.25
2022-08-30T22:24:23.685Z,100329.88
2022-08-30T22:26:52.030Z,100345.84
2022-08-30T22:29:20.443Z,100343.63
2022-08-30T22:31:48.937Z,100351.56
2022-08-30T22:34:17.821Z,100348.25
2022-08-30T22:36:46.329Z,100351.38
2022-08-30T22:39:14.828Z,100343.88
2022-08-30T22:41:44.881Z,100352.16
2022-08-30T22:44:13.676Z,100350.94
2022-08-30T22:46:42.120Z,100348.88
2022-08-30T22:49:12.196Z,100361.34
2022-08-30T22:51:42.699Z,100354.31
2022-08-30T22:54:12.065Z,100353.47
2022-08-30T22:56:40.723Z,100357.00
2022-08-30T22:59:10.586Z,100362.03
2022-08-30T23:01:43.317Z,100354.63
2022-08-30T23:04:13.409Z,100356.25
2022-08-30T23:06:41.993Z,100358.34
2022-08-30T23:09:18.438Z,100357.00
2022-08-30T23:11:46.871Z,100361.66
2022-08-30T23:14:16.792Z,100366.25
2022-08-30T23:16:45.250Z,100367.91
2022-08-30T23:19:13.931Z,100366.38
2022-08-30T23:21:42.656Z,100367.31
2022-08-30T23:24:28.647Z,100370.19
2022-08-30T23:27:14.397Z,100377.25
2022-08-30T23:30:01.776Z,100373.97
2022-08-30T23:32:47.856Z,100375.84
2022-08-30T23:35:33.890Z,100369.09
2022-08-30T23:38:23.839Z,100370.03
2022-08-30T23:41:09.897Z,100369.88
2022-08-30T23:43:56.174Z,100375.22
2022-08-30T23:46:43.421Z,100376.31
2022-08-30T23:49:29.126Z,100375.53
2022-08-30T23:52:15.016Z,100387.03
2022-08-30T23:55:00.793Z,100378.19
2022-08-30T23:57:47.149Z,100373.06
